createdAt,value
2023-02-19T00:01:11.063Z,9.03
2023-02-19T00:04:19.543Z,9.24
2023-02-19T00:07:22.289Z,9.26
2023-02-19T00:10:25.253Z,9.18
2023-02-19T00:13:27.866Z,9.07
2023-02-19T00:16:33.439Z,9.03
2023-02-19T00:19:35.994Z,9.17
2023-02-19T00:22:38.832Z,9.09
2023-02-19T00:25:41.423Z,9.20
2023-02-19T00:28:45.080Z,9.13
2023-02-19T00:31:47.898Z,9.16
2023-02-19T00:34:51.003Z,9.10
2023-02-19T00:37:53.623Z,9.07
2023-02-19T00:40:56.480Z,9.09
2023-02-19T00:44:00.247Z,9.08
2023-02-19T00:47:03.252Z,9.03
2023-02-19T00:50:06.671Z,8.90
2023-02-19T00:53:10.140Z,8.86
2023-02-19T00:56:13.076Z,8.73
2023-02-19T00:59:16.053Z,8.87
2023-02-19T01:02:19.215Z,8.82
2023-02-19T01:05:22.163Z,8.71
2023-02-19T01:08:25.040Z,8.84
2023-02-19T01:11:28.009Z,8.71
2023-02-19T01:14:30.592Z,8.66
2023-02-19T01:17:35.799Z,8.58
2023-02-19T01:20:44.133Z,8.56
2023-02-19T01:23:48.479Z,8.50
2023-02-19T01:26:51.126Z,8.45
2023-02-19T01:29:54.355Z,8.41
2023-02-19T01:32:56.927Z,8.34
2023-02-19T01:36:00.406Z,8.28
2023-02-19T01:39:05.310Z,8.20
2023-02-19T01:42:14.228Z,8.10
2023-02-19T01:45:24.736Z,8.10
2023-02-19T01:48:32.755Z,8.01
2023-02-19T01:51:38.341Z,8.00
2023-02-19T01:54:43.393Z,7.83
2023-02-19T01:57:47.994Z,7.85
2023-02-19T02:00:52.803Z,7.76
2023-02-19T02:03:56.098Z,7.66
2023-02-19T02:07:00.152Z,7.61
2023-02-19T02:10:23.068Z,7.42
2023-02-19T02:13:26.436Z,7.45
2023-02-19T02:16:48.038Z,7.43
2023-02-19T02:20:03.752Z,7.38
2023-02-19T02:23:16.837Z,7.36
2023-02-19T02:26:52.407Z,7.28
2023-02-19T02:30:17.940Z,7.14
2023-02-19T02:33:20.958Z,7.09
2023-02-19T02:36:28.239Z,7.10
2023-02-19T02:39:32.516Z,7.00
2023-02-19T02:42:39.660Z,7.04
2023-02-19T02:45:42.716Z,7.07
2023-02-19T02:48:55.524Z,7.11
2023-02-19T02:51:59.683Z,7.05
2023-02-19T02:55:05.508Z,7.14
2023-02-19T02:58:09.084Z,7.17
2023-02-19T03:02:01.837Z,7.14
2023-02-19T03:05:32.241Z,7.10
2023-02-19T03:08:56.052Z,7.09
2023-02-19T03:12:20.411Z,7.00
2023-02-19T03:15:43.951Z,6.92
2023-02-19T03:19:09.123Z,6.84
2023-02-19T03:22:20.055Z,6.77
2023-02-19T03:25:44.696Z,6.74
2023-02-19T03:29:08.900Z,6.75
2023-02-19T03:32:21.311Z,6.71
2023-02-19T03:35:32.235Z,6.79
2023-02-19T03:38:43.344Z,6.95
2023-02-19T03:42:06.338Z,6.99
2023-02-19T03:45:22.553Z,6.97
2023-02-19T03:48:35.137Z,6.98
2023-02-19T03:51:49.441Z,6.93
2023-02-19T03:55:22.655Z,6.92
2023-02-19T03:58:34.832Z,6.92
2023-02-19T04:01:56.548Z,6.88
2023-02-19T04:05:09.813Z,6.86
2023-02-19T04:08:18.408Z,6.84
2023-02-19T04:11:23.164Z,6.86
2023-02-19T04:14:43.321Z,6.87
2023-02-19T04:17:51.586Z,6.86
2023-02-19T04:20:55.341Z,6.70
2023-02-19T04:24:04.156Z,6.88
2023-02-19T04:27:07.276Z,6.92
2023-02-19T04:30:13.346Z,6.86
2023-02-19T04:33:16.046Z,6.86
2023-02-19T04:36:18.901Z,6.79
2023-02-19T04:39:21.986Z,6.77
2023-02-19T04:42:25.012Z,6.73
2023-02-19T04:45:27.498Z,6.81
2023-02-19T04:48:30.423Z,6.83
2023-02-19T04:51:33.333Z,6.67
2023-02-19T04:54:36.292Z,6.77
2023-02-19T04:57:38.873Z,6.77
2023-02-19T05:00:41.878Z,6.79
2023-02-19T05:03:44.552Z,6.87
2023-02-19T05:06:47.515Z,6.88
2023-02-19T05:09:50.039Z,6.87
2023-02-19T05:12:57.553Z,6.90
2023-02-19T05:16:03.201Z,6.73
2023-02-19T05:19:06.559Z,6.86
2023-02-19T05:22:09.186Z,6.89
2023-02-19T05:25:12.080Z,6.92
2023-02-19T05:28:17.620Z,6.88
2023-02-19T05:31:21.576Z,6.91
2023-02-19T05:34:24.478Z,6.93
2023-02-19T05:37:27.691Z,6.93
2023-02-19T05:40:30.530Z,6.92
2023-02-19T05:43:33.389Z,6.95
2023-02-19T05:46:36.041Z,6.94
2023-02-19T05:49:38.958Z,6.94
2023-02-19T05:52:41.605Z,6.95
2023-02-19T05:55:44.541Z,6.97
2023-02-19T05:58:47.123Z,6.95
2023-02-19T06:01:51.358Z,6.97
2023-02-19T06:04:54.169Z,6.95
2023-02-19T06:07:56.680Z,7.10
2023-02-19T06:10:59.610Z,7.14
2023-02-19T06:14:02.134Z,7.17
2023-02-19T06:17:04.962Z,7.20
2023-02-19T06:20:07.877Z,7.25
2023-02-19T06:23:11.063Z,7.26
2023-02-19T06:26:18.061Z,7.31
2023-02-19T06:29:20.962Z,7.25
2023-02-19T06:32:24.394Z,7.31
2023-02-19T06:35:27.427Z,7.28
2023-02-19T06:38:30.412Z,7.28
2023-02-19T06:41:33.469Z,7.29
2023-02-19T06:44:36.297Z,7.35
2023-02-19T06:47:39.251Z,7.37
2023-02-19T06:50:41.788Z,7.45
2023-02-19T06:53:44.850Z,7.47
2023-02-19T06:56:47.441Z,7.52
2023-02-19T06:59:50.448Z,7.58
2023-02-19T07:02:56.742Z,7.65
2023-02-19T07:06:00.814Z,7.65
2023-02-19T07:09:05.355Z,7.67
2023-02-19T07:12:08.270Z,7.53
2023-02-19T07:15:10.959Z,7.66
2023-02-19T07:18:13.921Z,7.64
2023-02-19T07:21:17.498Z,7.62
2023-02-19T07:24:21.702Z,7.56
2023-02-19T07:27:24.347Z,7.58
2023-02-19T07:30:27.602Z,7.56
2023-02-19T07:33:30.659Z,7.56
2023-02-19T07:36:33.560Z,7.54
2023-02-19T07:39:36.125Z,7.54
2023-02-19T07:42:39.265Z,7.53
2023-02-19T07:45:41.959Z,7.54
2023-02-19T07:48:45.561Z,7.52
2023-02-19T07:51:48.683Z,7.59
2023-02-19T07:54:51.920Z,7.60
2023-02-19T07:57:54.436Z,7.63
2023-02-19T08:00:57.729Z,7.62
2023-02-19T08:04:00.529Z,7.56
2023-02-19T08:07:03.129Z,7.62
2023-02-19T08:10:25.047Z,7.65
2023-02-19T08:13:30.170Z,7.66
2023-02-19T08:16:42.462Z,7.71
2023-02-19T08:19:45.285Z,7.77
2023-02-19T08:22:48.434Z,7.86
2023-02-19T08:25:52.015Z,7.91
2023-02-19T08:28:54.967Z,7.97
2023-02-19T08:31:57.590Z,8.10
2023-02-19T08:35:00.572Z,8.32
2023-02-19T08:38:04.929Z,8.46
2023-02-19T08:41:09.924Z,8.50
2023-02-19T08:44:12.727Z,8.52
2023-02-19T08:47:15.595Z,8.49
2023-02-19T08:50:18.283Z,8.44
2023-02-19T08:53:21.164Z,8.37
2023-02-19T08:56:23.910Z,8.28
2023-02-19T08:59:29.089Z,8.23
2023-02-19T09:02:31.573Z,8.20
2023-02-19T09:05:34.535Z,8.15
2023-02-19T09:08:37.037Z,8.15
2023-02-19T09:11:40.110Z,8.14
2023-02-19T09:14:42.829Z,8.13
2023-02-19T09:17:45.668Z,8.13
2023-02-19T09:20:48.258Z,8.09
2023-02-19T09:23:51.130Z,8.05
2023-02-19T09:26:54.890Z,8.00
2023-02-19T09:29:58.205Z,7.94
2023-02-19T09:33:00.710Z,7.91
2023-02-19T09:36:06.146Z,7.89
2023-02-19T09:39:10.470Z,7.87
2023-02-19T09:42:19.560Z,7.86
2023-02-19T09:45:24.417Z,7.83
2023-02-19T09:48:27.354Z,7.80
2023-02-19T09:51:31.734Z,7.75
2023-02-19T09:54:36.657Z,7.74
2023-02-19T09:57:40.249Z,7.77
2023-02-19T10:00:43.581Z,7.92
2023-02-19T10:03:48.383Z,8.34
2023-02-19T10:06:51.937Z,8.37
2023-02-19T10:10:01.224Z,8.35
2023-02-19T10:13:33.404Z,9.19
2023-02-19T10:16:40.701Z,10.31
2023-02-19T10:19:43.974Z,10.70
2023-02-19T10:22:46.849Z,10.40
2023-02-19T10:25:57.380Z,10.41
2023-02-19T10:29:01.552Z,10.49
2023-02-19T10:32:13.278Z,10.03
2023-02-19T10:35:16.872Z,10.00
2023-02-19T10:38:20.974Z,10.00
2023-02-19T10:41:25.759Z,9.87
2023-02-19T10:44:31.963Z,10.00
2023-02-19T10:47:35.950Z,10.13
2023-02-19T10:50:44.525Z,10.29
2023-02-19T10:53:52.675Z,10.18
2023-02-19T10:56:55.339Z,10.22
2023-02-19T11:00:01.256Z,9.98
2023-02-19T11:03:21.913Z,10.00
2023-02-19T11:06:27.121Z,9.91
2023-02-19T11:09:38.297Z,9.84
2023-02-19T11:12:41.393Z,10.03
2023-02-19T11:15:44.468Z,10.83
2023-02-19T11:18:57.153Z,12.18
2023-02-19T11:22:01.285Z,12.15
2023-02-19T11:25:10.463Z,12.01
2023-02-19T11:28:36.023Z,12.51
2023-02-19T11:31:38.963Z,13.39
2023-02-19T11:34:42.115Z,13.40
2023-02-19T11:37:59.433Z,13.03
2023-02-19T11:41:45.469Z,13.30
2023-02-19T11:45:13.190Z,13.54
2023-02-19T11:48:41.965Z,12.52
2023-02-19T11:51:51.486Z,12.18
2023-02-19T11:55:16.640Z,11.82
2023-02-19T11:58:25.993Z,11.60
2023-02-19T12:01:47.109Z,12.11
2023-02-19T12:05:23.379Z,13.65
2023-02-19T12:08:53.762Z,14.30
2023-02-19T12:12:09.665Z,15.20
2023-02-19T12:15:15.241Z,15.41
2023-02-19T12:18:39.542Z,14.55
2023-02-19T12:22:09.940Z,13.99
2023-02-19T12:25:26.142Z,14.24
2023-02-19T12:28:53.371Z,14.86
2023-02-19T12:32:21.452Z,15.54
2023-02-19T12:35:47.639Z,15.99
2023-02-19T12:39:28.136Z,14.52
2023-02-19T12:43:10.944Z,13.21
2023-02-19T12:46:26.138Z,12.46
2023-02-19T12:49:32.729Z,12.77
2023-02-19T12:52:41.627Z,12.56
2023-02-19T12:55:45.497Z,12.14
2023-02-19T12:58:51.154Z,11.61
2023-02-19T13:02:21.216Z,11.02
2023-02-19T13:05:34.944Z,10.66
2023-02-19T13:09:16.831Z,10.58
2023-02-19T13:12:41.935Z,10.45
2023-02-19T13:15:48.560Z,10.81
2023-02-19T13:18:58.674Z,12.27
2023-02-19T13:22:26.109Z,13.23
2023-02-19T13:25:57.335Z,12.93
2023-02-19T13:29:06.544Z,12.65
2023-02-19T13:32:18.715Z,12.18
2023-02-19T13:35:30.692Z,11.78
2023-02-19T13:38:43.793Z,11.44
2023-02-19T13:41:57.226Z,11.30
2023-02-19T13:45:02.481Z,11.27
2023-02-19T13:48:29.183Z,11.16
2023-02-19T13:51:35.073Z,11.04
2023-02-19T13:54:40.254Z,11.18
2023-02-19T13:57:44.904Z,11.62
2023-02-19T14:00:53.477Z,11.67
2023-02-19T14:04:19.434Z,11.45
2023-02-19T14:07:35.117Z,11.34
2023-02-19T14:10:45.924Z,11.36
2023-02-19T14:13:51.888Z,11.55
2023-02-19T14:16:57.457Z,11.58
2023-02-19T14:20:43.610Z,11.45
2023-02-19T14:23:53.155Z,11.31
2023-02-19T14:26:56.910Z,11.07
2023-02-19T14:30:00.241Z,10.90
2023-02-19T14:33:11.610Z,10.72
2023-02-19T14:36:26.694Z,10.57
2023-02-19T14:39:31.521Z,10.40
2023-02-19T14:42:35.567Z,10.28
2023-02-19T14:45:42.341Z,10.23
2023-02-19T14:48:47.140Z,10.24
2023-02-19T14:51:57.016Z,10.22
2023-02-19T14:55:03.998Z,10.15
2023-02-19T14:58:11.998Z,10.08
2023-02-19T15:01:28.553Z,10.11
2023-02-19T15:04:37.393Z,10.02
2023-02-19T15:07:42.158Z,9.95
2023-02-19T15:10:45.110Z,9.87
2023-02-19T15:13:52.503Z,9.84
2023-02-19T15:16:59.771Z,9.79
2023-02-19T15:20:11.554Z,9.81
2023-02-19T15:23:22.401Z,9.73
2023-02-19T15:26:43.181Z,9.66
2023-02-19T15:29:53.280Z,9.62
2023-02-19T15:33:00.635Z,9.61
2023-02-19T15:36:06.202Z,9.55
2023-02-19T15:39:17.901Z,9.50
2023-02-19T15:42:24.627Z,9.47
2023-02-19T15:45:41.210Z,9.40
2023-02-19T15:48:58.335Z,9.31
2023-02-19T15:52:22.693Z,9.24
2023-02-19T15:55:39.518Z,9.18
2023-02-19T15:58:58.498Z,9.05
2023-02-19T16:02:03.513Z,8.94
2023-02-19T16:05:16.038Z,8.84
2023-02-19T16:08:20.583Z,8.74
2023-02-19T16:11:24.381Z,8.71
2023-02-19T16:14:33.866Z,8.67
2023-02-19T16:17:37.637Z,8.68
2023-02-19T16:20:40.555Z,8.66
2023-02-19T16:23:46.056Z,8.61
2023-02-19T16:26:48.861Z,8.57
2023-02-19T16:29:52.300Z,8.52
2023-02-19T16:33:32.926Z,8.49
2023-02-19T16:36:42.811Z,8.44
2023-02-19T16:39:45.533Z,8.41
2023-02-19T16:42:49.421Z,8.38
2023-02-19T16:45:52.560Z,8.35
2023-02-19T16:48:55.985Z,8.35
2023-02-19T16:51:59.815Z,8.33
2023-02-19T16:55:03.817Z,8.30
2023-02-19T16:58:06.403Z,8.27
2023-02-19T17:01:10.002Z,8.24
2023-02-19T17:04:15.298Z,8.20
2023-02-19T17:07:18.778Z,8.05
2023-02-19T17:10:24.108Z,8.12
2023-02-19T17:13:27.433Z,8.09
2023-02-19T17:16:34.279Z,8.03
2023-02-19T17:19:39.516Z,7.84
2023-02-19T17:22:42.581Z,7.90
2023-02-19T17:25:45.837Z,7.86
2023-02-19T17:28:49.135Z,7.76
2023-02-19T17:31:52.434Z,7.75
2023-02-19T17:34:55.233Z,7.69
2023-02-19T17:37:58.434Z,7.66
2023-02-19T17:41:01.872Z,7.60
2023-02-19T17:44:05.018Z,7.59
2023-02-19T17:47:07.868Z,7.52
2023-02-19T17:50:22.780Z,7.50
2023-02-19T17:53:25.624Z,7.43
2023-02-19T17:56:28.805Z,7.41
2023-02-19T17:59:31.437Z,7.37
2023-02-19T18:02:34.812Z,7.34
2023-02-19T18:05:37.686Z,7.34
2023-02-19T18:08:47.434Z,7.09
2023-02-19T18:11:50.495Z,7.37
2023-02-19T18:14:54.687Z,7.33
2023-02-19T18:17:58.377Z,7.27
2023-02-19T18:21:01.187Z,7.26
2023-02-19T18:24:04.665Z,7.23
2023-02-19T18:27:07.558Z,7.22
2023-02-19T18:30:11.705Z,7.20
2023-02-19T18:33:14.660Z,7.18
2023-02-19T18:36:17.798Z,7.14
2023-02-19T18:39:20.840Z,7.10
2023-02-19T18:42:23.936Z,7.06
2023-02-19T18:45:27.625Z,7.04
2023-02-19T18:48:30.861Z,6.99
2023-02-19T18:51:35.020Z,6.97
2023-02-19T18:54:38.071Z,6.93
2023-02-19T18:57:42.131Z,6.95
2023-02-19T19:00:45.986Z,6.93
2023-02-19T19:03:49.486Z,6.89
2023-02-19T19:06:52.557Z,6.85
2023-02-19T19:09:55.789Z,6.82
2023-02-19T19:12:59.083Z,6.79
2023-02-19T19:16:02.552Z,6.74
2023-02-19T19:19:09.712Z,6.68
2023-02-19T19:22:12.858Z,6.63
2023-02-19T19:25:18.731Z,6.56
2023-02-19T19:28:22.068Z,6.52
2023-02-19T19:31:25.988Z,6.46
2023-02-19T19:34:29.345Z,6.42
2023-02-19T19:37:32.813Z,6.39
2023-02-19T19:40:35.632Z,6.33
2023-02-19T19:43:39.448Z,6.34
2023-02-19T19:46:45.789Z,6.30
2023-02-19T19:49:49.121Z,6.27
2023-02-19T19:52:51.814Z,6.23
2023-02-19T19:55:55.228Z,6.23
2023-02-19T19:58:58.502Z,6.22
2023-02-19T20:02:03.176Z,6.23
2023-02-19T20:05:07.891Z,6.18
2023-02-19T20:08:10.889Z,6.20
2023-02-19T20:11:14.011Z,6.17
2023-02-19T20:14:18.251Z,6.13
2023-02-19T20:17:21.777Z,6.07
2023-02-19T20:20:25.023Z,6.04
2023-02-19T20:23:28.774Z,6.02
2023-02-19T20:26:32.289Z,6.00
2023-02-19T20:29:36.399Z,6.01
2023-02-19T20:32:39.626Z,6.03
2023-02-19T20:35:42.739Z,6.01
2023-02-19T20:38:45.624Z,5.98
2023-02-19T20:41:50.522Z,5.97
2023-02-19T20:44:53.558Z,5.97
2023-02-19T20:47:57.225Z,5.96
2023-02-19T20:51:00.708Z,5.97
2023-02-19T20:54:04.000Z,5.89
2023-02-19T20:57:07.041Z,5.87
2023-02-19T21:00:11.750Z,5.78
2023-02-19T21:03:15.721Z,5.58
2023-02-19T21:06:19.005Z,5.62
2023-02-19T21:09:23.331Z,5.57
2023-02-19T21:12:27.093Z,5.49
2023-02-19T21:15:30.278Z,5.40
2023-02-19T21:18:33.386Z,5.37
2023-02-19T21:21:36.594Z,5.37
2023-02-19T21:24:39.757Z,5.39
2023-02-19T21:27:43.562Z,5.38
2023-02-19T21:30:46.722Z,5.39
2023-02-19T21:33:49.647Z,5.32
2023-02-19T21:36:53.949Z,5.17
2023-02-19T21:39:58.786Z,5.21
2023-02-19T21:43:01.972Z,5.17
2023-02-19T21:46:04.908Z,5.05
2023-02-19T21:49:07.894Z,4.94
2023-02-19T21:52:10.648Z,4.87
2023-02-19T21:55:13.819Z,4.79
2023-02-19T21:58:16.814Z,4.69
2023-02-19T22:01:28.249Z,4.57
2023-02-19T22:04:31.172Z,4.50
2023-02-19T22:07:33.691Z,4.42
2023-02-19T22:10:40.966Z,4.38
2023-02-19T22:13:43.526Z,4.34
2023-02-19T22:16:46.965Z,4.30
2023-02-19T22:19:49.645Z,4.22
2023-02-19T22:22:52.676Z,4.17
2023-02-19T22:25:55.304Z,4.06
2023-02-19T22:28:59.614Z,4.01
2023-02-19T22:32:02.328Z,3.92
2023-02-19T22:35:05.366Z,3.91
2023-02-19T22:38:08.012Z,3.82
2023-02-19T22:41:11.249Z,3.80
2023-02-19T22:44:14.179Z,3.76
2023-02-19T22:47:19.254Z,3.73
2023-02-19T22:50:23.794Z,3.74
2023-02-19T22:53:26.661Z,3.64
2023-02-19T22:56:29.518Z,3.62
2023-02-19T22:59:32.560Z,3.61
2023-02-19T23:02:35.586Z,3.58
2023-02-19T23:05:38.439Z,3.58
2023-02-19T23:08:42.444Z,3.48
2023-02-19T23:11:45.832Z,3.48
2023-02-19T23:14:48.444Z,3.45
2023-02-19T23:17:51.511Z,3.42
2023-02-19T23:20:54.100Z,3.43
2023-02-19T23:23:57.157Z,3.40
2023-02-19T23:27:00.666Z,3.41
2023-02-19T23:30:03.746Z,3.37
2023-02-19T23:33:06.348Z,3.37
2023-02-19T23:36:10.562Z,3.42
2023-02-19T23:39:15.708Z,3.36
2023-02-19T23:42:18.766Z,3.36
2023-02-19T23:45:21.423Z,3.33
2023-02-19T23:48:24.927Z,3.33
2023-02-19T23:51:27.740Z,3.30
2023-02-19T23:54:31.465Z,3.27
2023-02-19T23:57:34.196Z,3.28
